Farmville, VA (23909)

7:37 PM EST on February 14, 2016 (GMT -0500)
Hampden-Sydney College | | Change Station
CLOSE
Current Station
Personal Weather Station
Location: Hampden-Sydney, VA
Elevation: 510 ft
Nearby Weather Stations
Active Advisory: Winter Storm Warning

Elev 510 ft 37.24 °N, 78.46 °W | Updated 10 seconds ago

Overcast
Overcast
26.1 °F
Feels Like 19 °F
N
6.0
Wind Variable Wind from SW
Gusts 11.0 mph

Today
High -- | Low -- °F
--% Chance of Precip.
Yesterday
High -- | Low -- °F
Precip. -- in
Pressure 30.47 in
Visibility 10.0 miles
Clouds Scattered Clouds 4900 ft
Overcast 5500 ft
Windchill 19 °F
Dew Point 2 °F
Humidity 35%
Rainfall 0.00 in
Snow Depth Not available.
7:04 AM 5:51 PM
Waxing Crescent, 47% visible
METAR KFVX 150015Z AUTO 00000KT 10SM SCT049 OVC055 M02/M17 A3047 RMK AO2 T10251166
Pressure 30.47 in
Visibility 10.0 miles
Clouds Scattered Clouds 4900 ft
Overcast 5500 ft
Windchill 19 °F
Dew Point 2 °F
Humidity 35%
Rainfall 0.00 in
Snow Depth Not available.
7:04 AM 5:51 PM
Waxing Crescent, 47% visible
METAR KFVX 150015Z AUTO 00000KT 10SM SCT049 OVC055 M02/M17 A3047 RMK AO2 T10251166

10-Day Weather Forecast

Almanac

Astronomy

Feb. 14, 2016 Rise Set
Actual Time
Civil Twilight
Nautical Twilight
Astronomical Twilight
Moon
Length of Visible Light
Length of Day
Tomorrow will be .
, % of the Moon is Illuminated

Today's Extremes

State Highs State Lows

Community

WunderPhotos

Upload Photos

1,892,950 photos uploaded!

WunderBlog® & News

Nearby

Air Quality

  Air Quality AQ Index Pollutant
Not available.

Snow Depth

Station Depth Elevation

Earthquake Activity

City Distance Mag. Time & Date
Minimum magnitude displayed is 2.5.

Coastal Water Temperatures

Place Temperature

Stations

Nearby Weather Stations

Station Location Temp. Windchill Dew Point Humidity Wind Precip. Elev Updated Type
                   

Watches & Warnings

Winter Storm Warning
Issued: 2:51 PM EST Feb. 14, 2016 – National Weather Service

... Winter Storm Warning remains in effect from midnight tonight
to 4 am EST Tuesday...

* areas affected: central Virginia Piedmont.

* Hazards: snow... sleet and freezing rain.

* Accumulations: three to five inches of snow... and around one
tenth of an inch of ice.

* Temperatures: lows tonight around 20. Highs late Monday in the
lower 30s... .rising to the lower 30s late Monday night.

* Timing: snow overspreading the area late this evening... then
continuing through the morning hours Monday. The snow is
expected to change to sleet and freezing rain midday and
afternoon Monday... continue Monday evening before changing to
all rain late Monday night.

* Impacts: hazardous travel due to snow and ice covered roads.

Precautionary/preparedness actions...

A Winter Storm Warning means significant amounts of snow...
sleet... and ice are expected or occurring. Strong winds are also
possible. This will make travel very hazardous or impossible.